Date,TemperatureHighF,TemperatureAvgF,TemperatureLowF,DewpointHighF,DewpointAvgF,DewpointLowF,HumidityHigh,HumidityAvg,HumidityLow,PressureMaxIn,PressureMinIn,WindSpeedMaxMPH,WindSpeedAvgMPH,GustSpeedMaxMPH,PrecipitationSumIn
2013-1-1,22,14,12,13,8,6,81,77,66,0.00,40.00,3,2,9,0.00
2013-1-2,23,14,9,12,7,4,80,73,58,0.00,40.00,3,2,6,0.02
2013-1-3,34,21,12,12,8,5,77,59,37,0.00,40.00,3,1,5,0.07
2013-1-4,36,28,22,22,16,3,76,61,38,0.00,40.00,4,2,12,0.05
2013-1-5,37,29,24,22,17,15,71,61,52,0.00,40.00,4,2,7,0.12
2013-1-6,35,28,24,22,18,14,78,65,56,0.00,40.00,4,2,12,0.03
2013-1-7,34,29,25,26,19,12,87,68,53,0.00,40.00,8,3,19,0.01
2013-1-8,36,31,28,29,22,14,85,67,55,0.00,40.00,9,5,27,0.11
2013-1-9,37,34,29,33,28,23,92,80,60,0.00,40.00,5,3,16,0.22
2013-1-10,28,23,13,25,19,8,90,86,81,0.00,40.00,3,1,7,0.06
2013-1-11,16,9,4,9,3,-2,80,77,70,0.00,40.00,3,1,6,0.00
2013-1-12,15,5,1,6,-2,-6,77,74,66,0.00,40.00,1,1,3,0.00
2013-1-13,20,5,2,9,-2,-5,76,72,61,0.00,40.00,1,0,4,0.00
2013-1-14,15,8,1,9,2,-6,81,76,71,0.00,40.00,1,0,2,0.00
2013-1-15,32,20,12,24,16,7,85,80,73,0.00,40.00,1,1,3,0.03
2013-1-16,42,31,23,19,16,13,77,54,39,0.00,40.00,4,2,14,0.35
2013-1-17,46,34,28,16,12,9,48,41,30,0.00,40.00,4,2,12,0.17
2013-1-18,50,37,32,14,10,4,45,33,19,0.00,40.00,9,4,25,0.17
2013-1-19,49,37,31,12,8,3,39,30,21,0.00,40.00,4,3,10,0.00
2013-1-20,51,37,31,16,10,5,38,33,24,0.00,40.00,5,3,14,0.00
2013-1-21,52,39,33,16,7,0,34,27,21,0.00,40.00,4,2,8,0.00
2013-1-22,51,38,33,11,-1,-9,28,19,11,0.00,40.00,3,2,7,0.00
2013-1-23,49,41,34,31,13,2,76,35,20,0.00,40.00,6,3,19,0.00
2013-1-24,43,34,29,31,24,18,89,68,39,0.00,40.00,7,3,18,0.04
2013-1-25,41,35,30,32,27,21,92,75,67,0.00,40.00,4,2,9,0.04
2013-1-26,38,32,25,32,27,21,92,84,67,0.00,40.00,4,2,15,0.04
2013-1-27,34,24,20,21,15,10,84,67,48,0.00,40.00,9,3,20,0.02
2013-1-28,33,22,18,17,12,9,86,67,41,0.00,40.00,5,2,15,0.01
2013-1-29,26,21,19,21,17,15,87,85,77,0.00,40.00,3,2,9,0.01
2013-1-30,35,30,20,24,22,17,88,73,60,0.00,40.00,9,6,26,0.07
2013-1-31,37,33,31,31,27,23,80,76,68,0.00,40.00,5,2,14,0.14
2013-2-1,42,32,27,25,21,18,80,64,42,0.00,40.00,6,4,21,0.19
2013-2-2,44,32,26,25,19,15,69,59,45,0.00,40.00,4,2,10,0.10
2013-2-3,45,34,29,23,17,11,64,49,40,0.00,40.00,5,3,13,0.02
2013-2-4,34,32,30,25,21,17,70,64,55,0.00,40.00,5,3,17,0.02
2013-2-5,42,35,29,30,23,19,83,64,45,0.00,40.00,6,3,19,0.01
2013-2-6,33,28,23,27,22,16,90,79,65,0.00,40.00,5,2,16,0.16
2013-2-7,35,28,23,23,18,14,78,65,44,0.00,40.00,3,2,11,0.04
2013-2-8,33,26,22,26,20,13,86,76,61,0.00,40.00,5,2,9,0.02
2013-2-9,32,23,18,18,15,9,87,70,50,0.00,40.00,4,2,10,0.01
2013-2-10,30,22,18,23,15,10,86,75,62,0.00,40.00,4,2,7,0.05
2013-2-11,35,24,16,21,14,10,79,68,52,0.00,40.00,6,3,11,0.01
2013-2-12,32,27,24,25,21,16,84,77,71,0.00,40.00,5,2,12,0.03
2013-2-13,40,32,28,25,20,14,74,61,47,0.00,40.00,10,6,24,0.11
2013-2-14,38,29,26,19,17,14,74,61,44,0.00,40.00,5,3,16,0.01
2013-2-15,33,28,26,23,20,18,76,71,66,0.00,40.00,2,2,14,0.00
2013-2-19,39,31,24,22,16,10,86,56,34,0.00,40.00,5,3,10,0.01
2013-2-20,37,25,19,25,15,6,89,67,44,0.00,40.00,6,3,14,0.04
2013-2-21,28,21,13,17,10,3,83,63,45,0.00,40.00,5,3,13,0.04
2013-2-22,34,26,20,24,17,10,87,69,49,0.00,40.00,5,3,18,0.03
2013-2-23,31,24,19,24,13,8,89,65,40,0.00,40.00,11,5,25,0.11
2013-2-24,35,24,18,15,12,8,71,59,44,0.00,40.00,4,2,12,0.03
2013-2-25,31,25,20,23,15,8,81,66,52,0.00,40.00,5,3,16,0.04
2013-2-26,31,23,18,17,12,9,85,62,43,0.00,40.00,6,3,18,0.05
2013-2-27,41,27,18,17,11,7,71,52,37,0.00,40.00,6,2,17,0.03
2013-2-28,37,30,24,29,22,7,91,74,43,0.00,40.00,4,2,7,0.04
2013-3-1,45,37,32,33,30,27,89,76,60,0.00,40.00,4,3,8,0.04
2013-3-2,52,42,35,33,28,25,92,60,39,0.00,40.00,3,2,10,0.08
2013-3-3,35,28,21,33,18,9,93,69,45,0.00,40.00,12,6,31,0.22
2013-3-4,33,22,15,16,11,7,85,64,46,0.00,40.00,5,3,12,0.10
2013-3-5,39,28,17,16,10,5,63,47,33,0.00,40.00,5,3,13,0.01
2013-3-6,43,34,29,33,22,11,89,63,43,0.00,40.00,4,2,9,0.02
2013-3-7,42,31,26,22,15,9,77,53,32,0.00,40.00,7,3,14,0.02
2013-3-8,43,30,20,24,15,7,77,56,38,0.00,40.00,5,3,9,0.02
2013-3-9,44,30,24,21,15,11,64,55,36,0.00,40.00,7,3,15,0.00
2013-3-10,48,34,23,22,18,15,71,54,30,0.00,40.00,5,3,12,0.00
2013-3-11,42,33,28,25,17,6,83,53,31,0.00,40.00,9,5,21,0.01
2013-3-12,47,35,28,32,22,6,85,61,38,0.00,40.00,6,3,22,0.01
2013-3-13,56,44,38,29,26,23,71,49,31,0.00,40.00,6,3,15,0.01
2013-3-14,60,51,40,31,25,21,58,37,28,0.00,40.00,5,3,15,0.00
2013-3-15,53,42,36,30,26,23,77,54,37,0.00,40.00,11,5,26,0.01
2013-3-16,44,37,30,30,24,19,90,59,44,0.00,40.00,5,2,13,0.01
2013-3-17,30,24,19,27,16,10,91,72,54,0.00,40.00,16,5,31,0.07
2013-3-18,34,23,18,21,16,13,87,76,42,0.00,40.00,7,3,19,0.13
2013-3-19,43,29,16,23,12,6,71,51,35,0.00,40.00,7,4,19,0.44
2013-3-20,48,35,27,35,24,7,90,67,36,0.00,40.00,16,4,31,0.03
2013-3-21,34,24,18,23,14,9,90,67,38,0.00,40.00,9,4,22,0.21
2013-3-22,28,20,15,20,14,11,85,78,64,0.00,40.00,4,2,12,0.08
2013-3-23,33,19,12,18,10,4,84,70,30,0.00,40.00,6,2,12,0.03
2013-3-24,36,22,12,17,9,4,82,60,36,0.00,40.00,5,2,10,0.02
2013-3-25,44,30,18,17,11,3,56,46,34,0.00,40.00,5,3,9,0.02
2013-3-26,52,37,27,27,19,16,66,49,31,0.00,40.00,5,2,11,0.00
2013-3-27,54,41,32,28,23,19,59,50,36,0.00,40.00,5,3,10,0.00
2013-3-28,57,43,35,38,32,29,88,67,39,0.00,40.00,6,3,14,0.05
2013-3-29,53,40,35,39,31,27,86,73,44,0.00,40.00,5,2,10,0.05
2013-3-30,55,42,33,33,24,-100,74,55,30,0.00,40.00,5,3,10,0.01
2013-3-31,59,47,36,31,24,17,50,39,27,0.00,40.00,5,3,9,0.00
2013-4-1,60,47,36,34,27,23,66,46,34,0.00,40.00,4,3,9,0.00
2013-4-2,60,47,40,36,30,25,66,51,35,0.00,40.00,5,3,12,0.00
2013-4-3,55,46,39,35,30,26,68,53,37,0.00,40.00,5,3,14,0.00
2013-4-4,58,48,40,37,33,28,72,57,39,0.00,40.00,5,3,14,0.01
2013-4-5,48,40,35,39,33,27,88,77,52,0.00,40.00,6,3,25,0.14
2013-4-6,44,36,33,38,30,25,91,78,53,0.00,40.00,8,2,24,0.21
2013-4-7,40,33,30,36,27,21,91,79,56,0.00,40.00,8,3,24,0.16
2013-4-8,33,28,22,24,16,8,86,62,47,0.00,40.00,8,4,19,0.01
2013-4-9,39,27,14,19,12,6,71,54,38,0.00,40.00,5,3,12,0.00
2013-4-10,44,37,31,37,28,18,92,69,57,0.00,40.00,4,3,13,0.20
2013-4-11,39,34,29,31,24,18,90,68,53,0.00,40.00,8,4,19,0.22
2013-4-12,47,36,27,23,20,17,72,54,31,0.00,40.00,5,3,13,0.01
2013-4-13,37,30,24,30,21,14,92,69,53,0.00,40.00,9,5,24,0.20
2013-4-14,38,28,22,24,19,15,89,73,48,0.00,40.00,5,3,12,0.11
2013-4-15,32,23,17,18,9,6,77,55,43,0.00,40.00,7,5,16,0.02
2013-4-16,30,22,15,11,7,3,61,52,42,0.00,40.00,6,5,17,0.00
2013-4-17,39,26,15,13,7,1,60,45,23,0.00,40.00,5,4,11,0.00
2013-4-18,45,33,24,22,16,9,62,49,39,0.00,40.00,7,4,17,0.00
2013-4-19,47,36,31,35,29,20,88,74,51,0.00,40.00,4,2,11,0.05
2013-4-20,45,37,33,33,30,25,84,74,52,0.00,40.00,6,4,17,0.05
2013-4-21,45,34,22,35,26,16,85,71,56,0.00,40.00,7,4,20,0.21
2013-4-22,33,25,17,15,11,7,77,57,34,0.00,40.00,6,4,19,0.08
2013-4-23,41,31,21,21,16,11,68,53,36,0.00,40.00,5,3,12,0.01
2013-4-24,53,40,28,25,19,12,61,43,29,0.00,40.00,5,4,16,0.00
2013-4-25,57,47,38,25,20,14,47,35,26,0.00,40.00,8,4,19,0.00
2013-4-26,63,52,39,30,27,24,55,40,28,0.00,40.00,7,4,15,0.00
2013-4-27,62,53,41,34,25,20,76,36,22,0.00,40.00,10,6,31,0.02
2013-4-28,50,43,39,35,30,25,76,61,46,0.00,40.00,8,4,25,0.06
2013-4-29,41,36,27,33,27,19,90,72,46,0.00,40.00,8,6,25,0.28
2013-4-30,36,28,22,23,16,8,89,61,44,0.00,40.00,5,3,24,0.05
2013-5-1,44,32,22,26,16,11,89,55,28,0.00,40.00,4,3,10,0.02
2013-5-2,59,44,30,25,15,8,53,33,16,0.00,40.00,5,3,12,0.00
2013-5-3,46,43,37,36,28,10,91,58,23,0.00,40.00,5,3,15,0.12
2013-5-4,48,43,38,35,30,28,90,62,50,0.00,40.00,6,4,15,0.13
2013-5-6,68,59,44,40,29,23,54,34,19,0.00,40.00,5,3,11,0.00
2013-5-7,71,60,49,36,29,23,48,32,18,0.00,40.00,7,4,17,0.00
2013-5-8,72,59,47,40,33,27,56,40,20,0.00,40.00,5,4,11,0.00
2013-5-9,68,59,51,53,37,30,83,45,34,0.00,40.00,6,3,15,0.06
2013-5-10,71,62,53,44,37,32,54,40,31,0.00,40.00,6,4,12,0.05
2013-5-11,73,63,50,41,34,-100,51,36,27,0.00,40.00,5,3,13,0.00
2013-5-12,79,68,57,45,40,35,54,38,23,0.00,40.00,9,4,19,0.00
2013-5-13,76,59,43,49,43,31,82,58,32,0.00,40.00,15,6,35,0.34
2013-5-14,62,49,40,31,29,26,64,47,28,0.00,40.00,11,4,32,0.33
2013-5-15,58,47,39,37,32,26,73,54,40,0.00,40.00,4,2,9,0.00
2013-5-16,50,41,41,44,18,-100,93,77,64,0.00,40.00,3,2,8,0.09
2013-5-17,44,42,40,41,33,-100,93,82,64,0.00,40.00,3,2,8,0.35
2013-5-18,53,44,39,44,38,33,93,83,57,0.00,40.00,7,3,17,0.06
2013-5-19,52,44,38,39,35,32,86,72,56,0.00,40.00,5,3,12,0.01
2013-5-20,62,50,38,42,37,32,85,63,42,0.00,40.00,6,3,12,0.00
2013-5-21,66,56,45,42,37,32,71,50,28,0.00,40.00,6,3,18,0.02
2013-5-22,51,44,33,43,38,31,92,80,63,0.00,40.00,5,3,10,0.17
2013-5-23,46,38,31,35,30,27,92,74,47,0.00,40.00,5,3,12,0.04
2013-5-24,55,43,34,35,29,26,74,60,37,0.00,40.00,8,4,22,0.01
2013-5-25,56,43,32,35,30,25,77,63,42,0.00,40.00,5,3,12,0.01
2013-5-26,60,46,38,44,36,29,93,69,44,0.00,40.00,6,3,13,0.19
2013-5-27,56,46,40,43,39,35,93,77,47,0.00,40.00,5,2,9,0.15
2013-5-28,51,44,40,45,41,36,94,88,74,0.00,40.00,5,2,10,0.15
2013-5-29,59,47,38,41,36,30,90,68,41,0.00,40.00,8,4,21,0.03
2013-5-30,52,43,37,37,32,29,84,68,45,0.00,40.00,8,4,25,0.05
2013-5-31,52,44,37,32,28,26,69,54,41,0.00,40.00,9,4,21,0.01
2013-6-1,62,52,39,33,29,26,64,43,29,0.00,40.00,5,3,10,0.00
2013-6-2,52,46,38,44,37,28,92,72,40,0.00,40.00,7,3,19,0.27
2013-6-3,56,45,37,42,38,35,92,78,46,0.00,40.00,5,2,11,0.21
2013-6-4,58,47,41,42,38,33,91,71,49,0.00,40.00,5,2,11,0.01
2013-6-5,70,57,45,43,37,30,67,48,32,0.00,40.00,6,3,19,0.00
2013-6-6,75,63,53,43,38,27,52,40,31,0.00,40.00,5,3,11,0.00
2013-6-7,74,62,56,46,42,37,59,48,34,0.00,40.00,11,4,30,0.00
2013-6-8,73,61,48,39,32,27,53,36,21,0.00,40.00,7,4,26,0.00
2013-6-9,74,62,51,40,32,18,52,35,13,0.00,40.00,8,4,23,0.00
2013-6-10,71,61,49,35,30,27,45,32,22,0.00,40.00,5,4,11,0.00
2013-6-11,72,61,53,45,35,26,55,38,28,0.00,40.00,7,3,17,0.00
2013-6-12,63,55,48,45,41,37,70,59,47,0.00,40.00,6,3,14,0.00
2013-6-13,50,43,40,42,39,33,93,85,67,0.00,40.00,5,2,13,0.54
2013-6-14,53,45,38,44,35,31,91,69,45,0.00,40.00,6,3,14,0.07
2013-6-15,68,56,41,35,30,23,65,40,20,0.00,40.00,5,3,9,0.01
2013-6-16,73,66,51,43,35,23,51,33,24,0.00,40.00,4,4,11,0.00
2013-6-17,76,67,53,46,37,29,47,34,23,0.00,40.00,5,3,10,0.00
2013-6-18,79,66,58,50,43,33,65,44,32,0.00,40.00,6,3,14,0.00
2013-6-19,58,48,41,46,43,39,94,84,61,0.00,40.00,6,2,13,0.70
2013-6-20,51,41,37,39,35,34,93,82,54,0.00,40.00,6,3,13,0.59
2013-6-22,59,52,45,42,39,34,83,62,45,0.00,40.00,4,3,10,0.07
2013-6-23,67,56,43,43,39,35,74,54,41,0.00,40.00,6,3,9,0.00
2013-6-24,66,56,50,51,46,37,94,69,48,0.00,40.00,4,2,8,0.08
2013-6-25,63,54,45,54,46,40,94,76,53,0.00,40.00,5,3,12,0.15
2013-6-26,62,53,48,53,48,45,92,83,64,0.00,40.00,4,2,8,0.07
2013-6-27,79,62,49,53,47,42,94,65,28,0.00,40.00,5,3,12,0.03
2013-6-28,82,70,57,52,48,42,63,45,32,0.00,40.00,5,3,9,0.00
2013-6-29,80,70,62,60,52,43,77,55,41,0.00,40.00,4,2,10,0.02
2013-6-30,84,72,61,60,54,46,77,54,38,0.00,40.00,4,3,10,0.02
2013-7-1,89,77,65,58,48,38,58,39,19,0.00,40.00,5,4,9,0.00
2013-7-2,89,80,70,58,50,41,51,36,27,0.00,40.00,6,3,15,0.00
2013-7-3,87,78,69,54,48,41,52,35,23,0.00,40.00,6,4,23,0.00
2013-7-4,81,71,60,55,45,37,62,41,24,0.00,40.00,6,4,14,0.00
2013-7-5,77,65,54,44,39,33,51,39,30,0.00,40.00,6,4,18,0.00
2013-7-6,74,62,51,45,36,27,59,39,25,0.00,40.00,8,4,17,0.00
2013-7-7,78,69,55,43,39,33,52,34,25,0.00,40.00,6,3,12,0.00
2013-7-8,75,63,57,56,41,-100,94,47,30,0.00,40.00,7,3,22,0.11
2013-7-9,76,65,52,45,41,25,64,44,22,0.00,40.00,5,3,10,0.11
2013-7-10,88,74,63,43,34,-100,38,25,18,0.00,40.00,5,3,11,0.00
2013-7-11,79,67,57,46,40,35,65,38,25,0.00,40.00,8,3,22,0.00
2013-7-12,79,63,54,47,42,37,59,47,26,0.00,40.00,6,3,18,0.00
2013-7-13,72,62,51,39,34,24,55,37,25,0.00,40.00,6,3,12,0.00
2013-7-14,80,66,53,37,31,24,42,28,15,0.00,40.00,5,3,12,0.00
2013-7-15,87,72,60,41,36,32,41,28,16,0.00,40.00,6,3,16,0.00
2013-7-16,82,74,63,53,48,46,65,43,30,0.00,40.00,5,3,11,0.00
2013-7-17,86,70,60,57,52,43,74,55,36,0.00,40.00,6,4,14,0.02
2013-7-18,83,71,59,46,39,22,47,33,17,0.00,40.00,8,4,15,0.02
2013-7-19,84,72,61,40,32,22,33,23,17,0.00,40.00,8,4,15,0.00
2013-7-20,84,71,61,41,33,-100,37,26,18,0.00,40.00,6,4,14,0.00
2013-7-21,85,74,62,38,30,22,31,21,14,0.00,40.00,5,3,13,0.00
2013-7-22,85,73,63,36,30,24,29,21,12,0.00,40.00,5,4,14,0.00
2013-7-23,85,73,62,37,32,26,31,22,16,0.00,40.00,5,3,12,0.00
2013-7-24,87,76,65,43,32,24,31,21,12,0.00,40.00,7,3,15,0.00
2013-7-25,86,75,62,41,36,26,39,25,18,0.00,40.00,7,4,17,0.00
2013-7-26,87,75,64,38,30,22,30,20,10,0.00,40.00,6,3,19,0.00
2013-7-27,84,72,63,36,29,21,28,20,15,0.00,40.00,8,4,20,0.00
2013-7-28,78,67,57,39,30,19,39,25,19,0.00,40.00,6,3,13,0.00
2013-7-29,79,66,53,42,30,15,46,27,15,0.00,40.00,8,4,19,0.00
2013-7-30,78,66,58,40,30,20,35,26,19,0.00,40.00,5,3,12,0.00
2013-7-31,84,69,58,41,34,29,35,28,16,0.00,40.00,5,3,14,0.00
2013-8-1,68,58,49,54,46,33,97,70,28,0.00,40.00,7,3,21,0.28
2013-8-2,63,53,45,48,45,42,96,77,52,0.00,40.00,4,2,11,0.10
2013-8-3,69,57,45,51,45,42,92,67,39,0.00,40.00,4,3,10,0.00
2013-8-4,76,64,51,48,42,34,73,47,27,0.00,40.00,5,3,11,0.00
2013-8-5,78,66,60,47,38,33,50,36,23,0.00,40.00,6,3,15,0.00
2013-8-6,78,65,56,49,42,36,57,44,34,0.00,40.00,5,3,10,0.00
2013-8-7,83,70,59,41,36,29,45,31,20,0.00,40.00,5,3,12,0.00
2013-8-8,81,70,60,43,37,30,42,30,20,0.00,40.00,6,4,18,0.00
2013-8-9,80,65,57,52,46,42,81,51,30,0.00,40.00,6,3,19,0.05
2013-8-10,82,68,56,52,43,33,62,44,24,0.00,40.00,5,3,11,0.05
2013-8-11,80,67,60,45,40,36,44,37,26,0.00,40.00,3,2,7,0.01
2013-8-12,81,67,58,48,40,31,53,38,17,0.00,40.00,4,2,11,0.00
2013-8-13,78,66,60,47,39,-100,58,39,28,0.00,40.00,5,3,11,0.18
2013-8-14,81,70,59,45,38,32,50,33,20,0.00,40.00,5,3,10,0.18
2013-8-15,89,68,64,41,18,-100,30,19,9,0.00,40.00,6,4,15,0.00
2013-8-16,87,74,63,43,31,-100,37,23,14,0.00,40.00,7,4,14,0.00
2013-8-17,81,69,59,48,42,-100,57,39,26,0.00,40.00,7,3,14,0.00
2013-8-18,82,70,59,49,42,34,56,38,23,0.00,40.00,7,3,19,0.00
2013-8-19,85,67,59,44,27,-100,45,27,17,0.00,40.00,7,4,19,0.00
2013-8-20,80,67,57,44,36,-100,51,34,23,0.00,40.00,6,4,16,0.00
2013-8-21,80,67,54,39,32,27,46,29,16,0.00,40.00,5,3,10,0.00
2013-8-22,80,71,61,41,34,29,36,26,18,0.00,40.00,4,2,9,0.00
2013-8-23,80,67,56,51,45,38,81,46,30,0.00,40.00,6,3,16,0.01
2013-8-24,80,67,56,47,40,-100,62,41,26,0.00,40.00,5,3,15,0.01
2013-8-25,82,65,56,50,42,39,80,46,24,0.00,40.00,5,3,16,0.04
2013-8-26,76,64,52,52,44,33,77,50,31,0.00,40.00,4,2,11,0.04
2013-8-27,77,66,59,42,38,35,43,36,29,0.00,40.00,5,3,10,0.00
2013-8-28,74,66,56,54,49,46,92,54,42,0.00,40.00,6,3,15,0.03
2013-8-29,83,69,60,54,47,41,82,49,24,0.00,40.00,6,3,16,0.07
2013-8-30,77,63,55,56,47,39,81,59,31,0.00,40.00,6,3,20,0.04
2013-8-31,78,64,53,47,40,-100,65,43,28,0.00,40.00,5,3,10,0.00
2013-9-1,87,72,58,43,35,30,48,29,14,0.00,40.00,5,2,10,0.00
2013-9-2,75,70,64,47,37,30,53,31,21,0.00,40.00,4,2,8,0.00
2013-9-3,72,65,61,51,47,44,63,51,41,0.00,40.00,3,2,7,0.00
2013-9-4,83,69,57,52,48,40,76,50,27,0.00,40.00,5,3,10,0.00
2013-9-5,72,63,54,60,52,42,97,68,36,0.00,40.00,4,2,11,0.27
2013-9-6,70,60,53,59,53,49,98,79,59,0.00,40.00,4,2,9,0.13
2013-9-7,76,61,49,49,43,-100,85,57,25,0.00,40.00,4,3,12,0.01
2013-9-8,60,55,51,50,43,39,76,63,50,0.00,40.00,4,3,15,0.00
2013-9-9,67,57,49,49,44,39,83,63,46,0.00,40.00,5,3,12,0.00
2013-9-10,76,64,54,48,41,34,67,45,25,0.00,40.00,5,3,10,0.00
2013-9-11,79,67,56,45,39,35,55,37,24,0.00,40.00,5,3,13,0.00
2013-9-12,81,69,58,45,41,40,51,38,25,0.00,40.00,5,3,11,0.00
2013-9-13,79,68,61,48,44,40,55,43,33,0.00,40.00,5,3,18,0.00
2013-9-14,73,64,58,46,40,-100,58,44,33,0.00,40.00,5,3,14,0.00
2013-9-15,79,65,54,49,44,41,67,49,32,0.00,40.00,6,4,12,0.00
2013-9-16,79,63,50,52,44,33,97,54,25,0.00,40.00,11,4,25,0.15
2013-9-17,62,53,48,51,45,39,94,76,62,0.00,40.00,5,2,12,0.04
2013-9-18,47,44,40,40,37,34,95,78,70,0.00,40.00,6,2,21,0.07
2013-9-19,60,48,38,38,33,28,78,59,34,0.00,40.00,5,3,11,0.01
2013-9-20,72,57,45,30,27,21,51,33,18,0.00,40.00,6,3,13,0.00
2013-9-21,68,58,51,34,26,-100,52,32,19,0.00,40.00,5,3,12,0.00
2013-9-22,52,46,42,45,41,35,94,84,52,0.00,40.00,4,2,8,0.12
2013-9-23,52,44,39,41,34,30,94,69,42,0.00,40.00,6,3,18,0.09
2013-9-24,44,41,37,40,37,32,98,88,62,0.00,40.00,3,2,7,0.31
2013-9-25,41,37,35,40,36,32,98,95,79,0.00,40.00,6,3,17,0.44
2013-9-26,41,36,32,33,28,24,91,73,56,0.00,40.00,6,4,18,0.12
2013-9-27,44,37,31,33,28,23,80,71,60,0.00,40.00,4,2,11,0.01
2013-9-28,55,43,38,41,35,-100,96,77,55,0.00,40.00,6,3,17,0.10
2013-9-29,45,39,35,42,36,29,98,89,61,0.00,40.00,14,5,32,0.66
2013-9-30,43,37,33,39,32,26,98,84,53,0.00,40.00,13,4,40,0.66
2013-10-1,41,37,36,29,27,25,74,66,58,0.00,40.00,4,3,12,0.22
2013-10-2,47,37,28,30,24,20,90,61,43,0.00,40.00,5,3,10,0.01
2013-10-3,38,35,31,29,24,20,83,64,48,0.00,40.00,8,5,23,0.00
2013-10-4,45,35,27,26,21,18,70,57,43,0.00,40.00,5,3,10,0.00
2013-10-5,53,42,32,30,22,15,59,45,32,0.00,40.00,4,2,7,0.00
2013-10-6,63,54,42,30,23,16,42,30,20,0.00,40.00,5,3,9,0.00
2013-10-7,61,50,38,34,27,20,74,42,27,0.00,40.00,6,4,15,0.00
2013-10-8,44,38,32,31,26,21,86,63,50,0.00,40.00,6,3,16,0.00
2013-10-9,49,39,33,37,30,26,93,70,49,0.00,40.00,5,3,12,0.01
2013-10-10,42,37,31,35,30,25,94,77,63,0.00,40.00,4,2,7,0.01
2013-10-11,48,37,32,26,22,18,64,53,35,0.00,40.00,5,3,14,0.00
2013-10-12,44,36,31,30,24,-100,72,64,54,0.00,40.00,4,2,7,0.00
2013-10-13,46,37,30,31,27,24,79,67,55,0.00,40.00,4,2,9,0.00
2013-10-14,45,37,32,30,25,19,80,64,43,0.00,40.00,6,3,12,0.00
2013-10-15,46,37,28,28,24,16,82,61,44,0.00,40.00,5,3,9,0.00
2013-10-16,45,39,35,29,23,12,74,54,38,0.00,40.00,3,2,14,0.00
2013-10-17,38,35,30,31,28,24,91,78,70,0.00,40.00,3,2,7,0.00
2013-10-18,49,38,28,27,25,20,86,62,39,0.00,40.00,5,2,11,0.00
2013-10-19,56,45,37,28,18,-100,49,36,27,0.00,40.00,5,3,12,0.00
2013-10-20,53,44,38,31,27,20,68,52,38,0.00,40.00,5,3,12,0.00
2013-10-21,55,44,36,36,32,29,82,65,48,0.00,40.00,4,2,9,0.00
2013-10-22,59,48,40,35,30,21,69,53,34,0.00,40.00,3,2,6,0.00
2013-10-23,56,48,40,33,26,16,62,42,28,0.00,40.00,4,2,6,0.00
2013-10-24,58,48,40,31,25,21,54,41,32,0.00,40.00,4,2,6,0.00
2013-10-25,58,49,41,32,25,19,53,39,30,0.00,40.00,4,2,6,0.00
2013-10-26,57,46,39,33,22,-100,55,41,27,0.00,40.00,3,2,5,0.00
2013-10-27,52,45,31,26,23,17,59,42,32,0.00,40.00,9,4,22,0.00
2013-10-28,29,23,20,15,10,-100,74,60,51,0.00,40.00,9,6,22,0.00
2013-10-29,34,24,15,19,14,10,80,65,46,0.00,40.00,4,2,9,0.00
2013-10-30,41,34,28,22,20,18,69,58,45,0.00,40.00,4,2,10,0.00
2013-10-31,36,34,31,33,26,19,95,75,55,0.00,40.00,6,2,17,0.09
2013-11-1,46,36,32,34,29,24,96,76,52,0.00,40.00,4,3,13,0.15
2013-11-2,47,38,32,36,26,-100,90,66,42,0.00,40.00,12,4,31,0.12
2013-11-3,31,27,22,23,18,12,88,68,54,0.00,40.00,6,3,20,0.01
2013-11-4,30,23,19,24,15,8,86,71,52,0.00,40.00,4,2,9,0.04
2013-11-5,31,24,16,27,15,6,92,70,46,0.00,40.00,4,2,10,0.01
2013-11-6,38,32,29,28,22,17,90,66,49,0.00,40.00,6,3,20,0.10
2013-11-7,41,35,30,38,33,24,97,90,74,0.00,40.00,14,3,29,0.29
2013-11-8,35,31,28,30,26,19,94,83,67,0.00,40.00,5,3,21,0.12
2013-11-9,38,31,25,28,21,-100,78,69,58,0.00,40.00,3,2,8,0.06
2013-11-10,49,43,35,40,32,26,86,67,57,0.00,40.00,4,3,14,0.06
2013-11-11,49,41,35,37,32,27,88,73,53,0.00,40.00,4,2,7,0.01
2013-11-12,56,47,39,30,25,19,66,42,27,0.00,40.00,5,3,12,0.00
2013-11-13,43,39,34,36,29,23,89,68,51,0.00,40.00,5,3,17,0.02
2013-11-14,38,33,29,23,21,17,73,61,51,0.00,40.00,3,2,11,0.01
2013-11-15,32,29,26,23,18,16,87,64,54,0.00,40.00,5,3,17,0.00
2013-11-16,34,26,22,26,20,-100,95,82,64,0.00,40.00,9,4,27,0.15
2013-11-17,31,26,22,25,20,16,93,80,62,0.00,40.00,6,3,21,0.01
2013-11-18,43,35,27,25,19,15,68,53,39,0.00,40.00,5,3,15,0.19
2013-11-19,41,37,34,33,30,25,97,78,60,0.00,40.00,6,3,20,0.20
2013-11-20,35,26,14,33,15,6,95,63,39,0.00,40.00,6,4,18,0.12
2013-11-21,26,17,9,12,5,-1,78,61,46,0.00,40.00,4,2,7,0.01
2013-11-22,32,21,15,15,4,-6,56,46,36,0.00,40.00,3,2,6,0.00
2013-11-23,37,25,18,18,8,-100,55,50,40,0.00,40.00,3,1,5,0.00
2013-11-24,44,32,24,20,12,7,56,43,25,0.00,40.00,3,2,6,0.00
2013-11-25,47,38,33,20,16,10,50,41,31,0.00,40.00,5,2,8,0.00
2013-11-26,50,42,34,23,20,18,55,42,31,0.00,40.00,5,2,11,0.00
2013-11-27,48,38,33,25,19,16,54,46,38,0.00,40.00,4,2,6,0.00
2013-11-28,47,36,29,25,18,15,61,48,35,0.00,40.00,3,2,5,0.00
2013-11-29,48,38,35,27,19,15,69,45,35,0.00,40.00,4,2,14,0.00
2013-11-30,38,34,33,32,27,-100,84,77,69,0.00,40.00,3,2,12,0.00
2013-12-1,34,33,32,32,31,26,98,92,71,0.00,40.00,4,2,15,0.09
2013-12-2,36,26,15,34,23,11,98,88,71,0.00,40.00,6,3,21,0.52
2013-12-3,15,6,-1,12,-3,-11,89,67,50,0.00,40.00,6,4,15,0.03
2013-12-4,10,-1,-5,-6,-11,-13,71,64,47,0.00,40.00,4,2,9,0.00
2013-12-5,9,-2,-7,-2,-10,-13,76,71,60,0.00,40.00,3,1,10,0.00
2013-12-6,-4,-8,-12,-10,-14,-19,77,72,59,0.00,40.00,2,1,6,0.00
2013-12-7,-8,-12,-16,-17,-22,-100,71,66,59,0.00,40.00,4,1,8,0.00
2013-12-8,2,-7,-13,-9,-14,-20,75,71,60,0.00,40.00,3,2,7,0.00
2013-12-9,17,7,-7,12,2,-13,86,80,72,0.00,40.00,3,2,9,0.00
2013-12-10,22,17,15,15,13,11,87,82,70,0.00,40.00,3,2,8,0.00
2013-12-11,32,22,16,18,15,11,87,75,55,0.00,40.00,4,2,7,0.15
2013-12-12,43,31,24,22,18,16,75,61,42,0.00,40.00,4,2,7,0.43
2013-12-13,35,29,26,27,24,20,96,82,67,0.00,40.00,3,2,9,0.13
2013-12-14,35,31,28,28,23,-100,85,74,42,0.00,40.00,5,2,15,0.09
2013-12-15,42,37,33,27,21,10,65,52,32,0.00,40.00,10,6,29,0.19
2013-12-16,44,35,31,24,18,11,64,49,35,0.00,40.00,6,4,21,0.01
2013-12-17,52,41,32,19,14,11,42,35,25,0.00,40.00,7,4,22,0.00
2013-12-18,41,35,27,24,19,13,88,51,31,0.00,40.00,8,4,25,0.00
2013-12-19,27,20,14,24,17,10,95,88,71,0.00,40.00,2,2,6,0.00
2013-12-20,24,18,13,19,12,5,92,78,56,0.00,40.00,4,2,10,0.00
2013-12-21,28,22,20,23,19,-100,93,88,74,0.00,40.00,5,2,12,0.00
2013-12-22,31,28,24,26,23,20,93,82,74,0.00,40.00,5,2,16,0.00
2013-12-23,38,32,26,33,29,19,95,87,73,0.00,40.00,13,4,27,0.35
2013-12-24,35,25,20,19,16,11,76,68,44,0.00,40.00,13,4,27,0.16
2013-12-25,33,26,20,15,7,0,69,47,25,0.00,40.00,3,2,8,0.15
2013-12-26,50,37,31,27,21,15,64,51,38,0.00,40.00,3,2,12,0.15
2013-12-27,50,42,36,19,15,11,49,34,25,0.00,40.00,8,4,25,0.05
2013-12-28,35,28,22,21,15,-100,71,61,54,0.00,40.00,7,4,22,0.01
2013-12-29,29,25,19,20,14,10,78,66,49,0.00,40.00,6,3,15,0.01
2013-12-30,38,32,25,32,25,19,97,77,58,0.00,40.00,3,2,7,0.00
2013-12-31,35,32,29,32,28,20,96,85,65,0.00,40.00,6,4,22,0.09
2014-1-1,40,29,25,21,18,14,72,62,42,0.00,40.00,4,3,19,0.06
2014-1-2,42,34,28,31,19,13,76,54,41,0.00,40.00,6,3,19,0.02